createdAt,value
2017-07-26T00:00:40.253Z,1001.2
2017-07-26T00:01:39.445Z,1001.2
2017-07-26T00:02:38.519Z,1001.2
2017-07-26T00:03:37.602Z,1001.2
2017-07-26T00:04:37.195Z,1001.2
2017-07-26T00:05:36.393Z,1001.2
2017-07-26T00:06:35.468Z,1001.2
2017-07-26T00:07:34.549Z,1001.2
2017-07-26T00:08:34.136Z,1001.2
2017-07-26T00:09:33.331Z,1001.1
2017-07-26T00:10:32.534Z,1001.1
2017-07-26T00:11:31.504Z,1001.1
2017-07-26T00:12:30.847Z,1001.1
2017-07-26T00:14:29.314Z,1001.1
2017-07-26T00:15:28.939Z,1001.1
2017-07-26T00:16:28.136Z,1001.1
2017-07-26T00:17:27.097Z,1001
2017-07-26T00:18:26.293Z,1001.1
2017-07-26T00:19:25.488Z,1001.1
2017-07-26T00:20:25.070Z,1001.1
2017-07-26T00:21:24.283Z,1001.1
2017-07-26T00:23:22.395Z,1001.1
2017-07-26T00:24:22.103Z,1001.1
2017-07-26T00:25:21.309Z,1001.1
2017-07-26T00:26:20.511Z,1001.1
2017-07-26T00:26:50.925Z,1001.1
2017-07-26T00:27:21.444Z,1001.1
2017-07-26T00:27:51.723Z,1001.1
2017-07-26T00:28:22.116Z,1001.1
2017-07-26T00:28:52.614Z,1001.1
2017-07-26T00:30:17.372Z,1001.1
2017-07-26T00:31:16.584Z,1001
2017-07-26T00:32:15.790Z,1001.1
2017-07-26T00:33:15.006Z,1001.1
2017-07-26T00:34:14.487Z,1001.1
2017-07-26T00:35:13.575Z,1001.1
2017-07-26T00:36:12.529Z,1001.1
2017-07-26T00:37:12.234Z,1001.1
2017-07-26T00:38:11.455Z,1001.1
2017-07-26T00:39:10.651Z,1001.1
2017-07-26T00:39:41.148Z,1001.1
2017-07-26T00:40:11.665Z,1001.1
2017-07-26T00:41:08.857Z,1001
2017-07-26T00:42:08.064Z,1001.1
2017-07-26T00:43:07.263Z,1001.1
2017-07-26T00:44:06.838Z,1001.1
2017-07-26T00:45:06.108Z,1001.1
2017-07-26T00:46:05.077Z,1001.1
2017-07-26T00:47:04.272Z,1001.1
2017-07-26T00:48:03.485Z,1001.1
2017-07-26T00:49:02.693Z,1001.1
2017-07-26T00:50:01.891Z,1001.1
2017-07-26T00:51:01.248Z,1001.1
2017-07-26T00:52:00.321Z,1001.2
2017-07-26T00:53:00.045Z,1001.1
2017-07-26T00:54:58.135Z,1001.2
2017-07-26T00:55:57.732Z,1001.1
2017-07-26T00:56:28.247Z,1001.1
2017-07-26T00:56:58.760Z,1001.2
2017-07-26T00:57:29.278Z,1001.2
2017-07-26T00:57:59.783Z,1001.2
2017-07-26T00:58:30.197Z,1001.2
2017-07-26T00:59:00.719Z,1001.2
2017-07-26T00:59:31.232Z,1001.2
2017-07-26T01:00:53.464Z,1001.2
2017-07-26T01:01:53.049Z,1001.2
2017-07-26T01:02:52.256Z,1001.1
2017-07-26T01:04:50.620Z,1001.1
2017-07-26T01:05:49.977Z,1001.1
2017-07-26T01:06:49.164Z,1001.2
2017-07-26T01:07:48.365Z,1001.2
2017-07-26T01:08:47.579Z,1001.2
2017-07-26T01:09:46.658Z,1001.1
2017-07-26T01:10:45.854Z,1001.1
2017-07-26T01:11:45.069Z,1001.1
2017-07-26T01:12:44.549Z,1001.1
2017-07-26T01:13:43.769Z,1001.1
2017-07-26T01:14:42.855Z,1001.1
2017-07-26T01:15:42.439Z,1001
2017-07-26T01:16:41.645Z,1001
2017-07-26T01:17:40.744Z,1001
2017-07-26T01:19:39.230Z,1001
2017-07-26T01:20:09.620Z,1001
2017-07-26T01:20:40.046Z,1001
2017-07-26T01:21:10.563Z,1001
2017-07-26T01:22:36.946Z,1001
2017-07-26T01:23:36.147Z,1001
2017-07-26T01:24:35.347Z,1001
2017-07-26T01:26:33.922Z,1000.8
2017-07-26T01:27:33.262Z,1000.8
2017-07-26T01:28:32.492Z,1000.8
2017-07-26T01:29:31.440Z,1001
2017-07-26T01:30:30.645Z,1000.8
2017-07-26T01:31:29.876Z,1000.8
2017-07-26T01:32:29.088Z,1000.8
2017-07-26T01:33:28.286Z,1000.8
2017-07-26T01:34:27.470Z,1000.8
2017-07-26T01:35:27.169Z,1001
2017-07-26T01:36:26.376Z,1000.8
2017-07-26T01:37:25.569Z,1000.8
2017-07-26T01:38:24.658Z,1000.8
2017-07-26T01:38:55.169Z,1000.8
2017-07-26T01:40:23.062Z,1000.8
2017-07-26T01:41:22.265Z,1000.8
2017-07-26T01:42:21.462Z,1000.8
2017-07-26T01:43:20.677Z,1000.8
2017-07-26T01:44:20.271Z,1000.8
2017-07-26T01:45:19.112Z,1000.8
2017-07-26T01:46:18.595Z,1000.8
2017-07-26T01:47:17.669Z,1000.8
2017-07-26T01:48:17.256Z,1000.7
2017-07-26T01:48:47.653Z,1000.7
2017-07-26T01:49:18.063Z,1000.7
2017-07-26T01:49:48.560Z,1000.7
2017-07-26T01:51:14.942Z,1000.8
2017-07-26T01:52:14.150Z,1000.7
2017-07-26T01:53:13.241Z,1000.8
2017-07-26T01:54:12.453Z,1000.8
2017-07-26T01:55:11.536Z,1000.6
2017-07-26T01:56:10.726Z,1000.7
2017-07-26T01:57:10.315Z,1000.7
2017-07-26T01:58:09.505Z,1000.7
2017-07-26T01:59:08.584Z,1000.7
2017-07-26T02:00:08.050Z,1000.7
2017-07-26T02:01:07.141Z,1000.7
2017-07-26T02:02:06.111Z,1000.7
2017-07-26T02:03:05.684Z,1000.7
2017-07-26T02:04:04.888Z,1000.7
2017-07-26T02:05:04.100Z,1000.7
2017-07-26T02:06:03.301Z,1000.6
2017-07-26T02:08:01.543Z,1000.6
2017-07-26T02:09:00.762Z,1000.7
2017-07-26T02:09:59.946Z,1000.7
2017-07-26T02:10:59.531Z,1000.6
2017-07-26T02:11:58.498Z,1000.6
2017-07-26T02:12:57.699Z,1000.7
2017-07-26T02:13:56.892Z,1000.6
2017-07-26T02:14:56.487Z,1000.6
2017-07-26T02:15:26.999Z,1000.6
2017-07-26T02:15:57.523Z,1000.6
2017-07-26T02:16:54.718Z,1000.6
2017-07-26T02:17:53.913Z,1000.6
2017-07-26T02:18:53.109Z,1000.6
2017-07-26T02:19:52.325Z,1000.6
2017-07-26T02:20:51.516Z,1000.6
2017-07-26T02:21:51.107Z,1000.6
2017-07-26T02:22:50.305Z,1000.6
2017-07-26T02:23:49.389Z,1000.6
2017-07-26T02:24:48.628Z,1000.6
2017-07-26T02:25:47.698Z,1000.7
2017-07-26T02:26:47.397Z,1000.6
2017-07-26T02:27:46.468Z,1000.6
2017-07-26T02:28:45.670Z,1000.7
2017-07-26T02:29:44.744Z,1000.6
2017-07-26T02:30:44.317Z,1000.7
2017-07-26T02:31:43.542Z,1000.6
2017-07-26T02:32:42.762Z,1000.6
2017-07-26T02:33:41.977Z,1000.7
2017-07-26T02:34:41.200Z,1000.7
2017-07-26T02:35:40.413Z,1000.7
2017-07-26T02:37:38.896Z,1000.6
2017-07-26T02:38:38.114Z,1000.7
2017-07-26T02:39:37.334Z,1000.6
2017-07-26T02:40:36.543Z,1000.7
2017-07-26T02:41:35.746Z,1000.6
2017-07-26T02:42:34.832Z,1000.6
2017-07-26T02:43:34.033Z,1000.6
2017-07-26T02:44:33.236Z,1000.6
2017-07-26T02:45:03.745Z,1000.6
2017-07-26T02:45:34.021Z,1000.6
2017-07-26T02:46:04.542Z,1000.6
2017-07-26T02:46:35.050Z,1000.7
2017-07-26T02:47:05.571Z,1000.7
2017-07-26T02:48:30.446Z,1000.6
2017-07-26T02:49:29.656Z,1000.6
2017-07-26T02:50:28.733Z,1000.6
2017-07-26T02:51:27.940Z,1000.5
2017-07-26T02:52:27.160Z,1000.5
2017-07-26T02:53:26.366Z,1000.5
2017-07-26T02:54:25.570Z,1000.5
2017-07-26T02:55:24.758Z,1000.5
2017-07-26T02:56:24.454Z,1000.6
2017-07-26T02:57:23.657Z,1000.5
2017-07-26T02:58:22.862Z,1000.6
2017-07-26T02:59:21.820Z,1000.6
2017-07-26T03:00:21.284Z,1000.6
2017-07-26T03:01:20.631Z,1000.6
2017-07-26T03:02:19.602Z,1000.6
2017-07-26T03:04:18.198Z,1000.6
2017-07-26T03:05:17.409Z,1000.6
2017-07-26T03:06:16.606Z,1000.6
2017-07-26T03:08:15.206Z,1000.6
2017-07-26T03:09:14.164Z,1000.6
2017-07-26T03:10:13.367Z,1000.6
2017-07-26T03:11:12.978Z,1000.6
2017-07-26T03:12:12.077Z,1000.7
2017-07-26T03:13:11.279Z,1000.7
2017-07-26T03:14:10.356Z,1000.7
2017-07-26T03:16:08.715Z,1000.7
2017-07-26T03:17:07.926Z,1000.7
2017-07-26T03:18:07.628Z,1000.7
2017-07-26T03:19:06.833Z,1000.7
2017-07-26T03:20:06.033Z,1000.7
2017-07-26T03:21:05.115Z,1000.7
2017-07-26T03:22:04.310Z,1000.7
2017-07-26T03:23:03.777Z,1000.7
2017-07-26T03:24:02.998Z,1000.6
2017-07-26T03:25:02.206Z,1000.6
2017-07-26T03:25:32.600Z,1000.6
2017-07-26T03:26:03.102Z,1000.6
2017-07-26T03:27:00.688Z,1000.6
2017-07-26T03:28:59.168Z,1000.6
2017-07-26T03:29:58.259Z,1000.6
2017-07-26T03:30:57.353Z,1000.6
2017-07-26T03:31:56.576Z,1000.7
2017-07-26T03:33:55.169Z,1000.7
2017-07-26T03:34:54.256Z,1000.6
2017-07-26T03:35:53.453Z,1000.7
2017-07-26T03:36:23.958Z,1000.7
2017-07-26T03:36:54.361Z,1000.6
2017-07-26T03:37:24.870Z,1000.6
2017-07-26T03:37:55.394Z,1000.6
2017-07-26T03:38:25.790Z,1000.6
2017-07-26T03:40:50.055Z,1000.7
2017-07-26T03:41:49.248Z,1000.6
2017-07-26T03:42:48.330Z,1000.6
2017-07-26T03:43:47.321Z,1000.6
2017-07-26T03:44:46.525Z,1000.6
2017-07-26T03:45:46.002Z,1000.7
2017-07-26T03:46:45.192Z,1000.6
2017-07-26T03:47:44.384Z,1000.7
2017-07-26T03:48:43.591Z,1000.6
2017-07-26T03:49:42.776Z,1000.6
2017-07-26T03:50:42.353Z,1000.7
2017-07-26T03:51:41.313Z,1000.6
2017-07-26T03:53:39.900Z,1000.6
2017-07-26T03:55:38.493Z,1000.6
2017-07-26T03:56:37.700Z,1000.5
2017-07-26T03:57:36.898Z,1000.5
2017-07-26T03:58:36.107Z,1000.5
2017-07-26T03:59:35.194Z,1000.5
2017-07-26T04:00:34.383Z,1000.5
2017-07-26T04:01:33.965Z,1000.5
2017-07-26T04:02:32.919Z,1000.5
2017-07-26T04:03:31.994Z,1000.5
2017-07-26T04:04:31.707Z,1000.5
2017-07-26T04:05:30.920Z,1000.5
2017-07-26T04:06:30.136Z,1000.5
2017-07-26T04:07:29.331Z,1000.5
2017-07-26T04:08:28.535Z,1000.6
2017-07-26T04:09:27.609Z,1000.5
2017-07-26T04:10:26.813Z,1000.5
2017-07-26T04:11:26.017Z,1000.5
2017-07-26T04:12:25.219Z,1000.6
2017-07-26T04:13:24.802Z,1000.6
2017-07-26T04:14:23.996Z,1000.6
2017-07-26T04:15:23.074Z,1000.6
2017-07-26T04:16:22.288Z,1000.6
2017-07-26T04:17:21.757Z,1000.6
2017-07-26T04:18:20.837Z,1000.6
2017-07-26T04:19:19.805Z,1000.6
2017-07-26T04:20:19.387Z,1000.5
2017-07-26T04:21:18.242Z,1000.6
2017-07-26T04:22:17.836Z,1000.6
2017-07-26T04:24:15.925Z,1000.7
2017-07-26T04:25:15.499Z,1000.7
2017-07-26T04:26:14.591Z,1000.7
2017-07-26T04:27:13.680Z,1000.7
2017-07-26T04:28:13.149Z,1000.7
2017-07-26T04:29:12.121Z,1000.7
2017-07-26T04:30:11.703Z,1000.6
2017-07-26T04:31:10.922Z,1000.6
2017-07-26T04:32:10.012Z,1000.6
2017-07-26T04:32:40.537Z,1000.6
2017-07-26T04:33:11.065Z,1000.6
2017-07-26T04:33:41.461Z,1000.6
2017-07-26T04:34:11.977Z,1000.6
2017-07-26T04:34:42.482Z,1000.6
2017-07-26T04:36:07.133Z,1000.6
2017-07-26T04:39:04.608Z,1000.7
2017-07-26T04:41:03.207Z,1000.7
2017-07-26T04:42:02.407Z,1000.7
2017-07-26T04:43:01.611Z,1000.7
2017-07-26T04:44:00.805Z,1000.6
2017-07-26T04:45:59.294Z,1000.6
2017-07-26T04:47:57.641Z,1000.6
2017-07-26T04:48:56.733Z,1000.6
2017-07-26T04:49:55.935Z,1000.6
2017-07-26T04:50:55.636Z,1000.6
2017-07-26T04:51:54.835Z,1000.6
2017-07-26T04:52:54.035Z,1000.6
2017-07-26T04:53:53.235Z,1000.6
2017-07-26T04:54:52.315Z,1000.6
2017-07-26T04:57:49.788Z,1000.7
2017-07-26T04:58:48.992Z,1000.8
2017-07-26T04:59:48.692Z,1000.8
2017-07-26T05:00:47.774Z,1000.8
2017-07-26T05:01:46.974Z,1000.8
2017-07-26T05:02:17.255Z,1000.8
2017-07-26T05:02:47.770Z,1000.8
2017-07-26T05:03:18.153Z,1000.8
2017-07-26T05:03:48.548Z,1000.8
2017-07-26T05:04:18.943Z,1000.8
2017-07-26T05:05:43.824Z,1000.8
2017-07-26T05:06:42.918Z,1000.8
2017-07-26T05:07:42.121Z,1001
2017-07-26T05:08:41.709Z,1001
2017-07-26T05:09:40.906Z,1001
2017-07-26T05:11:38.999Z,1001
2017-07-26T05:12:38.704Z,1001
2017-07-26T05:13:37.891Z,1001
2017-07-26T05:14:37.099Z,1001
2017-07-26T05:15:36.310Z,1001
2017-07-26T05:17:34.395Z,1001.1
2017-07-26T05:18:33.990Z,1001.1
2017-07-26T05:19:33.081Z,1001.1
2017-07-26T05:20:32.280Z,1001.1
2017-07-26T05:21:31.484Z,1001.1
2017-07-26T05:22:30.677Z,1001.1
2017-07-26T05:23:29.885Z,1001.1
2017-07-26T05:24:29.081Z,1001.1
2017-07-26T05:24:59.593Z,1001.1
2017-07-26T05:25:29.879Z,1001.1
2017-07-26T05:26:00.390Z,1001.1
2017-07-26T05:27:27.035Z,1001.1
2017-07-26T05:28:26.223Z,1001.1
2017-07-26T05:29:25.440Z,1001.1
2017-07-26T05:30:24.792Z,1001.1
2017-07-26T05:31:23.877Z,1001
2017-07-26T05:32:23.081Z,1001
2017-07-26T05:33:22.275Z,1001.1
2017-07-26T05:34:21.755Z,1001.1
2017-07-26T05:35:20.726Z,1001.1
2017-07-26T05:36:20.201Z,1001.1
2017-07-26T05:38:18.660Z,1001.1
2017-07-26T05:40:16.747Z,1001.1
2017-07-26T05:41:15.945Z,1001.1
2017-07-26T05:42:15.411Z,1001.1
2017-07-26T05:43:14.496Z,1001.1
2017-07-26T05:44:13.697Z,1001.1
2017-07-26T05:44:44.201Z,1001.1
2017-07-26T05:46:12.104Z,1001.1
2017-07-26T05:47:11.683Z,1001.1
2017-07-26T05:48:10.646Z,1001.2
2017-07-26T05:49:09.853Z,1001.2
2017-07-26T05:50:09.037Z,1001.2
2017-07-26T05:51:08.751Z,1001.2
2017-07-26T05:52:07.960Z,1001.2
2017-07-26T05:53:07.035Z,1001.2
2017-07-26T05:54:06.264Z,1001.2
2017-07-26T05:55:05.353Z,1001.3
2017-07-26T05:55:35.881Z,1001.3
2017-07-26T05:57:04.166Z,1001.3
2017-07-26T05:58:03.368Z,1001.3
2017-07-26T05:59:02.450Z,1001.3
2017-07-26T06:00:01.654Z,1001.3
2017-07-26T06:01:00.856Z,1001.3
2017-07-26T06:02:00.078Z,1001.4
2017-07-26T06:02:59.277Z,1001.4
2017-07-26T06:03:58.496Z,1001.4
2017-07-26T06:04:57.969Z,1001.4
2017-07-26T06:05:57.057Z,1001.4
2017-07-26T06:06:56.258Z,1001.4
2017-07-26T06:07:55.342Z,1001.4
2017-07-26T06:08:54.545Z,1001.4
2017-07-26T06:09:54.260Z,1001.4
2017-07-26T06:11:52.517Z,1001.3
2017-07-26T06:12:51.718Z,1001.3
2017-07-26T06:13:50.820Z,1001.3
2017-07-26T06:14:50.010Z,1001.4
2017-07-26T06:15:49.591Z,1001.3
2017-07-26T06:16:48.877Z,1001.4
2017-07-26T06:17:48.093Z,1001.3
2017-07-26T06:18:47.306Z,1001.3
2017-07-26T06:19:46.388Z,1001.4
2017-07-26T06:20:45.475Z,1001.4
2017-07-26T06:21:15.985Z,1001.4
2017-07-26T06:22:44.383Z,1001.4
2017-07-26T06:23:43.475Z,1001.4
2017-07-26T06:24:42.672Z,1001.4
2017-07-26T06:25:41.754Z,1001.4
2017-07-26T06:26:40.968Z,1001.4
2017-07-26T06:27:40.180Z,1001.5
2017-07-26T06:28:39.382Z,1001.5
2017-07-26T06:29:38.730Z,1001.5
2017-07-26T06:30:37.925Z,1001.5
2017-07-26T06:31:37.396Z,1001.5
2017-07-26T06:32:36.470Z,1001.5
2017-07-26T06:33:06.875Z,1001.5
2017-07-26T06:33:37.277Z,1001.6
2017-07-26T06:34:34.847Z,1001.5
2017-07-26T06:35:34.045Z,1001.6
2017-07-26T06:36:33.629Z,1001.6
2017-07-26T06:37:32.852Z,1001.6
2017-07-26T06:40:30.326Z,1001.6
2017-07-26T06:41:29.907Z,1001.6
2017-07-26T06:42:28.991Z,1001.7
2017-07-26T06:43:28.190Z,1001.7
2017-07-26T06:44:27.406Z,1001.6
2017-07-26T06:45:26.986Z,1001.7
2017-07-26T06:46:25.967Z,1001.6
2017-07-26T06:47:25.290Z,1001.6
2017-07-26T06:48:24.384Z,1001.7
2017-07-26T06:49:23.870Z,1001.7
2017-07-26T06:50:23.065Z,1001.7
2017-07-26T06:50:53.582Z,1001.7
2017-07-26T06:51:24.103Z,1001.7
2017-07-26T06:51:54.613Z,1001.7
2017-07-26T06:52:24.888Z,1001.7
2017-07-26T06:52:55.279Z,1001.7
2017-07-26T06:54:20.042Z,1001.7
2017-07-26T06:55:19.236Z,1001.7
2017-07-26T06:56:18.442Z,1001.7
2017-07-26T06:57:17.791Z,1001.7
2017-07-26T06:58:16.878Z,1001.7
2017-07-26T06:59:15.956Z,1001.7
2017-07-26T07:00:15.652Z,1001.8
2017-07-26T07:01:14.735Z,1001.7
2017-07-26T07:02:13.946Z,1001.8
2017-07-26T07:03:13.136Z,1001.8
2017-07-26T07:04:12.347Z,1001.8
2017-07-26T07:05:11.826Z,1001.8
2017-07-26T07:06:11.033Z,1001.8
2017-07-26T07:07:10.237Z,1001.9
2017-07-26T07:08:09.326Z,1001.9
2017-07-26T07:09:08.527Z,1001.9
2017-07-26T07:10:08.122Z,1002
2017-07-26T07:11:07.194Z,1001.9
2017-07-26T07:13:05.813Z,1001.9
2017-07-26T07:14:05.014Z,1001.9
2017-07-26T07:14:35.535Z,1001.9
2017-07-26T07:16:03.175Z,1001.9
2017-07-26T07:17:02.631Z,1001.9
2017-07-26T07:18:01.832Z,1001.9
2017-07-26T07:19:01.026Z,1001.9
2017-07-26T07:20:00.222Z,1001.9
2017-07-26T07:20:59.680Z,1001.9
2017-07-26T07:21:58.775Z,1001.9
2017-07-26T07:22:58.366Z,1002
2017-07-26T07:23:57.567Z,1002
2017-07-26T07:24:56.767Z,1002
2017-07-26T07:25:55.984Z,1002
2017-07-26T07:26:55.180Z,1001.9
2017-07-26T07:27:54.395Z,1001.9
2017-07-26T07:28:53.876Z,1001.9
2017-07-26T07:29:53.065Z,1002
2017-07-26T07:30:52.406Z,1002
2017-07-26T07:31:51.593Z,1002
2017-07-26T07:32:22.109Z,1002
2017-07-26T07:32:52.763Z,1002
2017-07-26T07:33:49.829Z,1001.9
2017-07-26T07:34:49.025Z,1002
2017-07-26T07:35:48.213Z,1002
2017-07-26T07:36:47.913Z,1002
2017-07-26T07:37:47.101Z,1002
2017-07-26T07:38:46.203Z,1002
2017-07-26T07:39:45.288Z,1002
2017-07-26T07:40:44.482Z,1002
2017-07-26T07:41:44.188Z,1002
2017-07-26T07:42:43.036Z,1002
2017-07-26T07:43:13.436Z,1002
2017-07-26T07:43:43.837Z,1002.1
2017-07-26T07:44:14.350Z,1002.1
2017-07-26T07:45:41.246Z,1002.1
2017-07-26T07:46:40.476Z,1002.1
2017-07-26T07:48:38.568Z,1002.1
2017-07-26T07:49:38.266Z,1002.1
2017-07-26T07:50:37.465Z,1002.1
2017-07-26T07:51:36.433Z,1002.1
2017-07-26T07:52:35.639Z,1002.2
2017-07-26T07:53:35.235Z,1002.1
2017-07-26T07:54:34.337Z,1002.1
2017-07-26T07:55:33.547Z,1002.1
2017-07-26T07:56:32.641Z,1002.2
2017-07-26T07:57:32.349Z,1002.2
2017-07-26T07:58:31.316Z,1002.2
2017-07-26T07:59:30.710Z,1002.2
2017-07-26T08:00:29.906Z,1002.2
2017-07-26T08:01:29.035Z,1002.2
2017-07-26T08:02:28.253Z,1002.2
2017-07-26T08:03:27.481Z,1002.1
2017-07-26T08:04:27.189Z,1002.1
2017-07-26T08:05:26.379Z,1002.1
2017-07-26T08:06:25.468Z,1002.1
2017-07-26T08:07:24.670Z,1002.1
2017-07-26T08:08:24.246Z,1002.2
2017-07-26T08:09:23.208Z,1002.2
2017-07-26T08:10:22.407Z,1002.2
2017-07-26T08:11:21.882Z,1002.2
2017-07-26T08:12:20.970Z,1002.2
2017-07-26T08:13:20.565Z,1002.3
2017-07-26T08:14:19.668Z,1002.3
2017-07-26T08:15:18.867Z,1002.3
2017-07-26T08:16:17.953Z,1002.3
2017-07-26T08:17:17.655Z,1002.3
2017-07-26T08:18:16.855Z,1002.3
2017-07-26T08:19:15.954Z,1002.3
2017-07-26T08:20:15.022Z,1002.3
2017-07-26T08:21:14.226Z,1002.4
2017-07-26T08:22:13.940Z,1002.3
2017-07-26T08:23:13.141Z,1002.3
2017-07-26T08:25:11.746Z,1002.3
2017-07-26T08:26:10.588Z,1002.3
2017-07-26T08:27:10.286Z,1002.3
2017-07-26T08:28:09.474Z,1002.3
2017-07-26T08:29:08.444Z,1002.3
2017-07-26T08:30:08.024Z,1002.2
2017-07-26T08:31:07.239Z,1002.3
2017-07-26T08:32:06.444Z,1002.2
2017-07-26T08:33:05.668Z,1002.3
2017-07-26T08:34:04.763Z,1002.3
2017-07-26T08:35:03.955Z,1002.3
2017-07-26T08:36:03.664Z,1002.3
2017-07-26T08:37:02.747Z,1002.3
2017-07-26T08:38:01.950Z,1002.3
2017-07-26T08:39:01.155Z,1002.3
2017-07-26T08:39:31.670Z,1002.3
2017-07-26T08:40:02.350Z,1002.2
2017-07-26T08:40:32.903Z,1002.2
2017-07-26T08:41:03.406Z,1002.3
2017-07-26T08:41:33.802Z,1002.3
2017-07-26T08:42:58.169Z,1002.3
2017-07-26T08:43:57.364Z,1002.3
2017-07-26T08:44:57.070Z,1002.3
2017-07-26T08:45:56.275Z,1002.4
2017-07-26T08:46:55.352Z,1002.4
2017-07-26T08:47:54.699Z,1002.4
2017-07-26T08:48:53.668Z,1002.4
2017-07-26T08:49:53.286Z,1002.4
2017-07-26T08:50:52.497Z,1002.4
2017-07-26T08:51:22.886Z,1002.4
2017-07-26T08:51:53.156Z,1002.3
2017-07-26T08:52:23.556Z,1002.3
2017-07-26T08:53:50.321Z,1002.3
2017-07-26T08:54:49.514Z,1002.4
2017-07-26T08:55:48.596Z,1002.4
2017-07-26T08:56:47.808Z,1002.4
2017-07-26T08:57:47.503Z,1002.4
2017-07-26T08:58:46.716Z,1002.4
2017-07-26T08:59:45.916Z,1002.4
2017-07-26T09:00:44.887Z,1002.4
2017-07-26T09:01:44.610Z,1002.4
2017-07-26T09:02:43.682Z,1002.4
2017-07-26T09:03:42.897Z,1002.4
2017-07-26T09:04:42.089Z,1002.4
2017-07-26T09:05:41.296Z,1002.4
2017-07-26T09:06:40.896Z,1002.5
2017-07-26T09:07:40.116Z,1002.5
2017-07-26T09:08:39.315Z,1002.5
2017-07-26T09:09:09.819Z,1002.5
2017-07-26T09:09:40.323Z,1002.5
2017-07-26T09:10:10.719Z,1002.5
2017-07-26T09:11:37.086Z,1002.5
2017-07-26T09:12:36.288Z,1002.6
2017-07-26T09:13:35.490Z,1002.6
2017-07-26T09:14:34.570Z,1002.5
2017-07-26T09:15:34.171Z,1002.5
2017-07-26T09:16:33.366Z,1002.5
2017-07-26T09:17:32.475Z,1002.5
2017-07-26T09:18:32.057Z,1002.5
2017-07-26T09:19:31.149Z,1002.6
2017-07-26T09:20:30.360Z,1002.6
2017-07-26T09:21:29.626Z,1002.6
2017-07-26T09:22:28.700Z,1002.6
2017-07-26T09:23:28.202Z,1002.6
2017-07-26T09:24:27.407Z,1002.6
2017-07-26T09:25:26.606Z,1002.6
2017-07-26T09:26:26.192Z,1002.6
2017-07-26T09:27:25.389Z,1002.6
2017-07-26T09:28:24.597Z,1002.6
2017-07-26T09:29:23.691Z,1002.6
2017-07-26T09:30:23.278Z,1002.6
2017-07-26T09:31:22.479Z,1002.6
2017-07-26T09:31:52.757Z,1002.6
2017-07-26T09:32:23.159Z,1002.6
2017-07-26T09:32:53.826Z,1002.6
2017-07-26T09:34:20.202Z,1002.7
2017-07-26T09:35:19.278Z,1002.7
2017-07-26T09:36:18.369Z,1002.6
2017-07-26T09:37:18.069Z,1002.7
2017-07-26T09:38:17.044Z,1002.7
2017-07-26T09:39:16.630Z,1002.6
2017-07-26T09:40:15.529Z,1002.6
2017-07-26T09:41:14.730Z,1002.7
2017-07-26T09:42:14.315Z,1002.6
2017-07-26T09:44:12.828Z,1002.6
2017-07-26T09:45:11.912Z,1002.6
2017-07-26T09:46:11.130Z,1002.6
2017-07-26T09:47:10.341Z,1002.6
2017-07-26T09:48:09.534Z,1002.6
2017-07-26T09:49:09.242Z,1002.6
2017-07-26T09:50:08.327Z,1002.6
2017-07-26T09:51:07.413Z,1002.7
2017-07-26T09:52:06.626Z,1002.7
2017-07-26T09:53:06.336Z,1002.7
2017-07-26T09:54:05.419Z,1002.7
2017-07-26T09:55:04.498Z,1002.7
2017-07-26T09:56:03.702Z,1002.7
2017-07-26T09:57:02.922Z,1002.7
2017-07-26T09:58:02.524Z,1002.7
2017-07-26T09:59:01.604Z,1002.7
2017-07-26T10:00:00.807Z,1002.7
2017-07-26T10:01:00.407Z,1002.7
2017-07-26T10:01:59.490Z,1002.7
2017-07-26T10:02:58.580Z,1002.8
2017-07-26T10:03:29.105Z,1002.8
2017-07-26T10:03:59.620Z,1002.8
2017-07-26T10:04:57.315Z,1002.7
2017-07-26T10:05:56.512Z,1002.7
2017-07-26T10:06:55.719Z,1002.8
2017-07-26T10:07:54.910Z,1002.7
2017-07-26T10:08:54.131Z,1002.8
2017-07-26T10:09:53.634Z,1002.8
2017-07-26T10:10:52.829Z,1002.8
2017-07-26T10:11:51.901Z,1002.8
2017-07-26T10:12:51.612Z,1002.8
2017-07-26T10:13:50.838Z,1002.8
2017-07-26T10:14:49.915Z,1002.8
2017-07-26T10:15:49.107Z,1002.8
2017-07-26T10:16:48.307Z,1002.8
2017-07-26T10:17:47.510Z,1002.9
2017-07-26T10:19:46.096Z,1002.9
2017-07-26T10:20:45.298Z,1002.9
2017-07-26T10:21:45.004Z,1002.9
2017-07-26T10:22:44.194Z,1002.9
2017-07-26T10:23:43.268Z,1003
2017-07-26T10:24:42.482Z,1003
2017-07-26T10:25:41.682Z,1003
2017-07-26T10:26:41.406Z,1003
2017-07-26T10:27:40.476Z,1003.1
2017-07-26T10:28:11.015Z,1003.1
2017-07-26T10:28:41.430Z,1003.1
2017-07-26T10:29:11.823Z,1003.1
2017-07-26T10:30:38.481Z,1003.1
2017-07-26T10:31:37.727Z,1003.1
2017-07-26T10:33:35.887Z,1003
2017-07-26T10:34:35.478Z,1003.1
2017-07-26T10:35:34.770Z,1003.1
2017-07-26T10:36:33.965Z,1003.1
2017-07-26T10:37:33.177Z,1003.1
2017-07-26T10:38:32.395Z,1003.1
2017-07-26T10:39:31.608Z,1003.2
2017-07-26T10:40:02.000Z,1003.2
2017-07-26T10:41:30.435Z,1003.2
2017-07-26T10:42:29.506Z,1003.2
2017-07-26T10:43:28.703Z,1003.3
2017-07-26T10:44:28.049Z,1003.2
2017-07-26T10:45:27.137Z,1003.2
2017-07-26T10:46:26.740Z,1003.2
2017-07-26T10:47:25.963Z,1003.2
2017-07-26T10:48:25.044Z,1003.3
2017-07-26T10:49:24.236Z,1003.4
2017-07-26T10:50:23.832Z,1003.3
2017-07-26T10:51:23.029Z,1003.3
2017-07-26T10:52:22.126Z,1003.3
2017-07-26T10:53:21.586Z,1003.4
2017-07-26T10:54:20.545Z,1003.4
2017-07-26T10:55:20.259Z,1003.4
2017-07-26T10:56:19.224Z,1003.4
2017-07-26T10:57:18.816Z,1003.4
2017-07-26T10:57:49.208Z,1003.4
2017-07-26T10:58:19.726Z,1003.4
2017-07-26T10:58:50.000Z,1003.4
2017-07-26T10:59:20.399Z,1003.4
2017-07-26T10:59:50.906Z,1003.4
2017-07-26T11:01:15.554Z,1003.5
2017-07-26T11:02:14.798Z,1003.5
2017-07-26T11:03:13.997Z,1003.5
2017-07-26T11:04:13.703Z,1003.5
2017-07-26T11:05:12.674Z,1003.5
2017-07-26T11:06:11.769Z,1003.4
2017-07-26T11:07:11.466Z,1003.5
2017-07-26T11:08:10.668Z,1003.5
2017-07-26T11:09:09.749Z,1003.5
2017-07-26T11:10:08.942Z,1003.6
2017-07-26T11:11:08.411Z,1003.7
2017-07-26T11:12:07.607Z,1003.6
2017-07-26T11:12:38.267Z,1003.6
2017-07-26T11:13:08.784Z,1003.6
2017-07-26T11:14:05.977Z,1003.6
2017-07-26T11:15:05.451Z,1003.7
2017-07-26T11:16:04.657Z,1003.6
2017-07-26T11:17:04.015Z,1003.6
2017-07-26T11:18:03.487Z,1003.7
2017-07-26T11:19:02.448Z,1003.6
2017-07-26T11:20:01.664Z,1003.7
2017-07-26T11:21:00.864Z,1003.7
2017-07-26T11:21:31.139Z,1003.7
2017-07-26T11:22:01.648Z,1003.7
2017-07-26T11:22:59.615Z,1003.7
2017-07-26T11:23:58.702Z,1003.7
2017-07-26T11:24:57.916Z,1003.7
2017-07-26T11:25:57.493Z,1003.7
2017-07-26T11:26:56.691Z,1003.8
2017-07-26T11:27:55.900Z,1003.8
2017-07-26T11:28:55.173Z,1003.7
2017-07-26T11:29:54.259Z,1003.8
2017-07-26T11:30:53.531Z,1003.7
2017-07-26T11:31:53.231Z,1003.8
2017-07-26T11:32:52.442Z,1003.7
2017-07-26T11:33:51.650Z,1003.8
2017-07-26T11:34:50.860Z,1003.8
2017-07-26T11:35:49.939Z,1003.8
2017-07-26T11:36:49.141Z,1003.8
2017-07-26T11:37:48.749Z,1003.8
2017-07-26T11:38:47.958Z,1003.8
2017-07-26T11:39:47.155Z,1003.8
2017-07-26T11:40:46.357Z,1003.8
2017-07-26T11:41:45.565Z,1003.9
2017-07-26T11:42:44.648Z,1003.9
2017-07-26T11:43:44.358Z,1003.9
2017-07-26T11:44:43.421Z,1004
2017-07-26T11:45:42.614Z,1003.9
2017-07-26T11:46:41.817Z,1004.1
2017-07-26T11:47:41.021Z,1004
2017-07-26T11:48:40.232Z,1004
2017-07-26T11:49:39.933Z,1004.1
2017-07-26T11:50:39.147Z,1004.1
2017-07-26T11:51:09.654Z,1004.1
2017-07-26T11:51:40.153Z,1004.1
2017-07-26T11:52:10.688Z,1004.1
2017-07-26T11:52:41.068Z,1004.1
2017-07-26T11:53:11.465Z,1004.1
2017-07-26T11:53:41.886Z,1004.1
2017-07-26T11:54:35.968Z,1004.1
2017-07-26T11:55:35.236Z,1004.2
2017-07-26T11:56:34.443Z,1004.2
2017-07-26T11:57:34.027Z,1004.2
2017-07-26T11:58:33.234Z,1004.2
2017-07-26T11:59:32.205Z,1004.1
2017-07-26T12:00:31.396Z,1004.1
2017-07-26T12:01:30.583Z,1004.2
2017-07-26T12:02:30.187Z,1004.2
2017-07-26T12:03:29.402Z,1004.2
2017-07-26T12:04:28.597Z,1004.2
2017-07-26T12:05:27.665Z,1004.2
2017-07-26T12:06:27.268Z,1004.1
2017-07-26T12:07:26.356Z,1004.2
2017-07-26T12:08:25.435Z,1004.2
2017-07-26T12:09:25.022Z,1004.2
2017-07-26T12:10:24.120Z,1004.2
2017-07-26T12:11:23.335Z,1004.4
2017-07-26T12:12:22.813Z,1004.3
2017-07-26T12:13:21.789Z,1004.4
2017-07-26T12:14:21.245Z,1004.4
2017-07-26T12:15:20.333Z,1004.4
2017-07-26T12:16:19.910Z,1004.4
2017-07-26T12:17:18.990Z,1004.4
2017-07-26T12:18:18.080Z,1004.4
2017-07-26T12:19:17.663Z,1004.4
2017-07-26T12:20:16.747Z,1004.4
2017-07-26T12:21:15.829Z,1004.4